createdAt,value
2022-10-18T00:02:13.530Z,100174.19
2022-10-18T00:04:40.550Z,100161.13
2022-10-18T00:07:07.247Z,100167.81
2022-10-18T00:09:33.891Z,100166.00
2022-10-18T00:12:00.410Z,100163.91
2022-10-18T00:14:27.098Z,100165.00
2022-10-18T00:16:53.396Z,100162.44
2022-10-18T00:19:19.854Z,100164.88
2022-10-18T00:21:46.157Z,100165.84
2022-10-18T00:24:12.581Z,100168.59
2022-10-18T00:26:38.887Z,100170.19
2022-10-18T00:29:06.185Z,100168.81
2022-10-18T00:31:35.570Z,100168.81
2022-10-18T00:34:04.756Z,100174.84
2022-10-18T00:36:32.938Z,100170.50
2022-10-18T00:38:59.401Z,100164.47
2022-10-18T00:41:29.443Z,100160.09
2022-10-18T00:44:04.986Z,100159.03
2022-10-18T00:46:32.847Z,100159.69
2022-10-18T00:49:02.173Z,100158.94
2022-10-18T00:51:32.894Z,100154.69
2022-10-18T00:53:59.326Z,100163.28
2022-10-18T00:56:26.339Z,100164.13
2022-10-18T00:58:52.860Z,100164.00
2022-10-18T01:01:22.137Z,100161.69
2022-10-18T01:03:52.066Z,100170.50
2022-10-18T01:06:18.604Z,100169.66
2022-10-18T01:08:53.787Z,100174.75
2022-10-18T01:11:32.014Z,100176.44
2022-10-18T01:14:30.650Z,100177.50
2022-10-18T01:17:08.070Z,100184.75
2022-10-18T01:20:02.699Z,100180.91
2022-10-18T01:22:37.661Z,100185.25
2022-10-18T01:25:23.625Z,100182.47
2022-10-18T01:28:13.152Z,100172.84
2022-10-18T01:30:41.212Z,100173.78
2022-10-18T01:33:27.415Z,100175.72
2022-10-18T01:36:07.965Z,100165.38
2022-10-18T01:38:36.570Z,100161.13
2022-10-18T01:41:04.743Z,100153.28
2022-10-18T01:43:34.016Z,100152.78
2022-10-18T01:46:00.825Z,100166.06
2022-10-18T01:48:29.574Z,100164.34
2022-10-18T01:50:56.718Z,100159.03
2022-10-18T01:53:31.857Z,100160.41
2022-10-18T01:56:16.457Z,100154.97
2022-10-18T01:58:57.042Z,100157.03
2022-10-18T02:01:49.736Z,100149.06
2022-10-18T02:04:27.483Z,100150.75
2022-10-18T02:07:02.973Z,100156.69
2022-10-18T02:09:41.280Z,100164.84
2022-10-18T02:12:10.932Z,100170.69
2022-10-18T02:14:38.679Z,100171.19
2022-10-18T02:17:09.769Z,100165.00
2022-10-18T02:19:41.477Z,100180.16
2022-10-18T02:22:10.755Z,100175.91
2022-10-18T02:24:42.983Z,100160.44
2022-10-18T02:27:10.028Z,100158.44
2022-10-18T02:29:36.837Z,100150.00
2022-10-18T02:32:16.520Z,100158.19
2022-10-18T02:34:49.206Z,100156.63
2022-10-18T02:37:17.580Z,100162.03
2022-10-18T02:39:48.271Z,100168.63
2022-10-18T02:42:15.727Z,100162.59
2022-10-18T02:44:42.144Z,100154.97
2022-10-18T02:47:10.725Z,100147.63
2022-10-18T02:49:37.150Z,100133.13
2022-10-18T02:52:04.019Z,100142.53
2022-10-18T02:54:30.534Z,100137.97
2022-10-18T02:56:56.868Z,100118.88
2022-10-18T02:59:23.387Z,100136.16
2022-10-18T03:01:49.765Z,100137.00
2022-10-18T03:04:16.288Z,100134.69
2022-10-18T03:06:43.004Z,100125.38
2022-10-18T03:09:09.711Z,100122.28
2022-10-18T03:11:36.111Z,100121.53
2022-10-18T03:14:02.578Z,100126.22
2022-10-18T03:16:29.028Z,100128.16
2022-10-18T03:18:55.676Z,100132.16
2022-10-18T03:21:22.035Z,100114.22
2022-10-18T03:23:48.457Z,100111.66
2022-10-18T03:26:14.794Z,100119.09
2022-10-18T03:28:41.627Z,100143.19
2022-10-18T03:31:08.218Z,100153.03
2022-10-18T03:33:34.757Z,100149.66
2022-10-18T03:36:01.103Z,100158.34
2022-10-18T03:38:27.660Z,100159.66
2022-10-18T03:40:54.042Z,100152.44
2022-10-18T03:43:20.500Z,100149.66
2022-10-18T03:45:46.936Z,100158.56
2022-10-18T03:48:13.354Z,100148.28
2022-10-18T03:50:39.725Z,100127.63
2022-10-18T03:53:06.357Z,100121.38
2022-10-18T03:55:32.798Z,100131.22
2022-10-18T03:57:59.170Z,100135.50
2022-10-18T04:00:25.962Z,100139.44
2022-10-18T04:02:55.089Z,100135.31
2022-10-18T04:05:23.171Z,100133.84
2022-10-18T04:07:50.412Z,100139.28
2022-10-18T04:10:16.809Z,100135.66
2022-10-18T04:12:43.340Z,100111.91
2022-10-18T04:15:10.374Z,100116.13
2022-10-18T04:17:36.820Z,100113.44
2022-10-18T04:20:03.356Z,100131.69
2022-10-18T04:22:29.758Z,100131.88
2022-10-18T04:24:56.391Z,100129.22
2022-10-18T04:27:22.893Z,100129.34
2022-10-18T04:29:49.274Z,100122.56
2022-10-18T04:32:15.865Z,100122.56
2022-10-18T04:37:09.534Z,100129.47
2022-10-18T04:39:35.869Z,100119.91
2022-10-18T04:42:02.478Z,100132.00
2022-10-18T04:44:29.049Z,100131.88
2022-10-18T04:46:55.761Z,100129.97
2022-10-18T04:49:22.080Z,100130.06
2022-10-18T04:51:48.713Z,100121.38
2022-10-18T04:54:15.098Z,100114.38
2022-10-18T04:56:41.535Z,100113.41
2022-10-18T04:59:07.995Z,100111.72
2022-10-18T05:01:34.398Z,100118.50
2022-10-18T05:04:01.003Z,100111.78
2022-10-18T05:06:27.477Z,100110.91
2022-10-18T05:08:54.964Z,100115.72
2022-10-18T05:11:21.614Z,100107.88
2022-10-18T05:13:50.175Z,100128.66
2022-10-18T05:16:17.553Z,100129.28
2022-10-18T05:18:43.918Z,100120.47
2022-10-18T05:21:10.360Z,100117.81
2022-10-18T05:23:36.651Z,100114.44
2022-10-18T05:26:05.974Z,100122.28
2022-10-18T05:28:39.790Z,100130.13
2022-10-18T05:31:09.036Z,100138.09
2022-10-18T05:33:35.954Z,100138.09
2022-10-18T05:36:02.403Z,100138.72
2022-10-18T05:38:29.131Z,100119.75
2022-10-18T05:40:55.693Z,100105.72
2022-10-18T05:43:22.273Z,100098.19
2022-10-18T05:45:51.352Z,100104.81
2022-10-18T05:48:18.485Z,100116.75
2022-10-18T05:50:45.365Z,100116.97
2022-10-18T05:53:18.345Z,100117.81
2022-10-18T05:56:01.693Z,100122.19
2022-10-18T05:58:28.148Z,100125.44
2022-10-18T06:00:54.590Z,100131.31
2022-10-18T06:03:21.267Z,100137.44
2022-10-18T06:05:47.634Z,100125.69
2022-10-18T06:08:14.102Z,100126.16
2022-10-18T06:10:40.847Z,100132.69
2022-10-18T06:13:07.464Z,100130.03
2022-10-18T06:15:34.149Z,100137.25
2022-10-18T06:18:00.800Z,100136.16
2022-10-18T06:20:27.172Z,100138.09
2022-10-18T06:22:53.580Z,100137.34
2022-10-18T06:25:19.935Z,100132.78
2022-10-18T06:27:46.390Z,100144.25
2022-10-18T06:30:12.755Z,100130.03
2022-10-18T06:32:39.151Z,100138.59
2022-10-18T06:35:06.167Z,100133.53
2022-10-18T06:37:32.731Z,100137.00
2022-10-18T06:39:59.310Z,100129.03
2022-10-18T06:42:25.782Z,100135.09
2022-10-18T06:44:52.210Z,100132.56
2022-10-18T06:47:18.526Z,100141.16
2022-10-18T06:49:44.995Z,100135.00
2022-10-18T06:52:11.323Z,100127.97
2022-10-18T06:54:37.683Z,100145.28
2022-10-18T06:57:04.107Z,100136.44
2022-10-18T06:59:31.424Z,100136.31
2022-10-18T07:01:58.444Z,100138.97
2022-10-18T07:04:28.361Z,100135.50
2022-10-18T07:06:54.945Z,100139.84
2022-10-18T07:09:21.254Z,100138.75
2022-10-18T07:11:47.578Z,100132.38
2022-10-18T07:14:16.398Z,100127.41
2022-10-18T07:16:42.939Z,100141.28
2022-10-18T07:19:09.283Z,100142.84
2022-10-18T07:21:35.982Z,100135.50
2022-10-18T07:24:02.513Z,100131.47
2022-10-18T07:26:31.298Z,100138.25
2022-10-18T07:29:15.516Z,100134.00
2022-10-18T07:31:41.948Z,100135.94
2022-10-18T07:34:11.725Z,100129.91
2022-10-18T07:36:38.282Z,100128.94
2022-10-18T07:39:05.806Z,100136.06
2022-10-18T07:41:32.758Z,100141.25
2022-10-18T07:44:00.281Z,100151.03
2022-10-18T07:46:26.765Z,100148.50
2022-10-18T07:48:54.649Z,100154.66
2022-10-18T07:51:21.707Z,100157.19
2022-10-18T07:53:48.413Z,100158.03
2022-10-18T07:56:17.258Z,100162.25
2022-10-18T07:58:44.389Z,100160.44
2022-10-18T08:01:11.802Z,100160.44
2022-10-18T08:03:38.689Z,100167.34
2022-10-18T08:06:07.085Z,100168.81
2022-10-18T08:08:33.680Z,100172.22
2022-10-18T08:11:08.790Z,100180.66
2022-10-18T08:13:35.623Z,100180.44
2022-10-18T08:16:10.844Z,100179.59
2022-10-18T08:18:38.018Z,100182.97
2022-10-18T08:21:07.011Z,100178.66
2022-10-18T08:23:34.441Z,100176.59
2022-10-18T08:26:02.119Z,100169.59
2022-10-18T08:28:29.566Z,100184.22
2022-10-18T08:30:56.107Z,100182.53
2022-10-18T08:33:23.506Z,100185.06
2022-10-18T08:35:57.808Z,100184.94
2022-10-18T08:38:24.404Z,100186.66
2022-10-18T08:40:51.636Z,100186.66
2022-10-18T08:43:30.369Z,100188.59
2022-10-18T08:45:57.401Z,100196.44
2022-10-18T08:48:44.072Z,100192.81
2022-10-18T08:51:27.556Z,100191.63
2022-10-18T08:54:15.656Z,100194.91
2022-10-18T08:56:46.968Z,100186.94
2022-10-18T08:59:13.969Z,100185.84
2022-10-18T09:02:12.865Z,100194.13
2022-10-18T09:05:12.830Z,100192.44
2022-10-18T09:08:03.475Z,100195.19
2022-10-18T09:10:35.797Z,100198.81
2022-10-18T09:13:02.128Z,100205.72
2022-10-18T09:15:49.603Z,100206.22
2022-10-18T09:18:32.039Z,100213.09
2022-10-18T09:21:14.559Z,100207.91
2022-10-18T09:24:05.460Z,100207.06
2022-10-18T09:26:45.571Z,100204.41
2022-10-18T09:33:08.463Z,100221.91
2022-10-18T09:36:03.429Z,100226.16
2022-10-18T09:38:33.444Z,100227.75
2022-10-18T09:41:07.236Z,100232.06
2022-10-18T09:43:56.573Z,100224.25
2022-10-18T09:46:30.731Z,100213.56
2022-10-18T09:49:06.329Z,100217.69
2022-10-18T09:51:39.089Z,100221.75
2022-10-18T09:54:24.401Z,100221.25
2022-10-18T09:56:57.300Z,100219.56
2022-10-18T10:02:22.298Z,100234.09
2022-10-18T10:04:50.341Z,100227.78
2022-10-18T10:07:31.046Z,100229.28
2022-10-18T10:10:14.114Z,100232.22
2022-10-18T10:12:41.543Z,100227.41
2022-10-18T10:15:23.382Z,100246.19
2022-10-18T10:18:05.513Z,100242.22
2022-10-18T10:20:44.054Z,100241.63
2022-10-18T10:23:22.843Z,100238.72
2022-10-18T10:25:54.683Z,100240.25
2022-10-18T10:28:25.904Z,100245.81
2022-10-18T10:30:52.469Z,100247.81
2022-10-18T10:33:38.685Z,100241.44
2022-10-18T10:36:16.056Z,100249.94
2022-10-18T10:38:42.731Z,100238.56
2022-10-18T10:41:21.500Z,100247.28
2022-10-18T10:43:50.079Z,100238.56
2022-10-18T10:46:18.989Z,100240.41
2022-10-18T10:48:49.608Z,100239.09
2022-10-18T10:51:28.523Z,100244.19
2022-10-18T10:54:01.188Z,100251.22
2022-10-18T10:56:35.233Z,100241.66
2022-10-18T10:59:09.951Z,100248.31
2022-10-18T11:01:36.623Z,100241.19
2022-10-18T11:04:24.963Z,100243.72
2022-10-18T11:07:09.944Z,100239.91
2022-10-18T11:09:48.356Z,100244.25
2022-10-18T11:12:30.880Z,100238.47
2022-10-18T11:15:00.978Z,100231.44
2022-10-18T11:17:39.734Z,100240.88
2022-10-18T11:20:20.235Z,100246.34
2022-10-18T11:22:58.860Z,100244.50
2022-10-18T11:25:40.526Z,100249.34
2022-10-18T11:28:26.661Z,100230.38
2022-10-18T11:31:12.637Z,100247.16
2022-10-18T11:34:09.378Z,100253.38
2022-10-18T11:39:53.839Z,100259.78
2022-10-18T11:42:47.752Z,100261.09
2022-10-18T11:45:45.214Z,100261.22
2022-10-18T11:48:24.642Z,100255.91
2022-10-18T11:51:04.486Z,100259.63
2022-10-18T11:53:51.029Z,100260.97
2022-10-18T11:56:40.756Z,100261.22
2022-10-18T11:59:24.579Z,100249.34
2022-10-18T12:02:19.553Z,100256.13
2022-10-18T12:04:58.431Z,100251.53
2022-10-18T12:07:52.446Z,100231.25
2022-10-18T12:10:31.643Z,100244.31
2022-10-18T12:13:18.287Z,100247.91
2022-10-18T12:15:45.497Z,100254.56
2022-10-18T12:18:17.208Z,100251.91
2022-10-18T12:20:49.096Z,100257.22
2022-10-18T12:23:20.252Z,100255.19
2022-10-18T12:25:50.985Z,100241.53
2022-10-18T12:28:38.410Z,100243.59
2022-10-18T12:31:23.597Z,100240.34
2022-10-18T12:33:54.118Z,100237.66
2022-10-18T12:36:47.748Z,100232.47
2022-10-18T12:39:38.737Z,100239.88
2022-10-18T12:42:22.787Z,100241.91
2022-10-18T12:45:00.178Z,100239.25
2022-10-18T12:47:29.192Z,100238.25
2022-10-18T12:50:01.955Z,100241.78
2022-10-18T12:52:31.033Z,100243.47
2022-10-18T12:55:20.682Z,100244.94
2022-10-18T12:58:13.358Z,100233.47
2022-10-18T13:00:39.722Z,100236.50
2022-10-18T13:03:11.789Z,100236.38
2022-10-18T13:05:55.959Z,100233.69
2022-10-18T13:08:31.969Z,100241.81
2022-10-18T13:11:01.601Z,100243.41
2022-10-18T13:13:53.054Z,100236.34
2022-10-18T13:16:22.372Z,100234.25
2022-10-18T13:19:08.212Z,100237.03
2022-10-18T13:21:53.071Z,100236.47
2022-10-18T13:24:26.646Z,100237.53
2022-10-18T13:27:31.507Z,100231.75
2022-10-18T13:30:25.822Z,100233.34
2022-10-18T13:33:07.304Z,100233.72
2022-10-18T13:35:44.368Z,100230.44
2022-10-18T13:38:26.986Z,100233.94
2022-10-18T13:41:20.565Z,100233.81
2022-10-18T13:43:52.998Z,100238.38
2022-10-18T13:46:23.640Z,100230.28
2022-10-18T13:48:59.261Z,100230.16
2022-10-18T13:52:03.281Z,100229.22
2022-10-18T13:54:44.930Z,100245.06
2022-10-18T13:57:22.494Z,100238.50
2022-10-18T14:00:19.948Z,100245.03
2022-10-18T14:03:02.412Z,100251.34
2022-10-18T14:05:51.027Z,100248.19
2022-10-18T14:08:44.656Z,100246.25
2022-10-18T14:11:10.908Z,100246.88
2022-10-18T14:13:52.354Z,100243.34
2022-10-18T14:16:33.397Z,100247.22
2022-10-18T14:19:14.493Z,100247.09
2022-10-18T14:21:49.029Z,100241.91
2022-10-18T14:24:20.753Z,100247.03
2022-10-18T14:26:47.662Z,100239.63
2022-10-18T14:29:19.637Z,100244.00
2022-10-18T14:31:53.341Z,100242.53
2022-10-18T14:34:26.325Z,100241.06
2022-10-18T14:36:53.024Z,100243.22
2022-10-18T14:39:23.818Z,100243.34
2022-10-18T14:41:53.127Z,100241.56
2022-10-18T14:44:24.626Z,100239.84
2022-10-18T14:46:51.989Z,100245.75
2022-10-18T14:49:20.191Z,100245.41
2022-10-18T14:51:53.816Z,100247.13
2022-10-18T14:54:26.195Z,100252.19
2022-10-18T14:56:55.924Z,100252.06
2022-10-18T14:59:26.629Z,100259.06
2022-10-18T15:02:00.899Z,100256.78
2022-10-18T15:04:29.104Z,100256.06
2022-10-18T15:06:55.823Z,100255.91
2022-10-18T15:09:24.361Z,100249.03
2022-10-18T15:11:51.641Z,100260.75
2022-10-18T15:14:19.890Z,100261.59
2022-10-18T15:16:48.815Z,100244.06
2022-10-18T15:19:15.257Z,100257.38
2022-10-18T15:25:16.495Z,100257.84
2022-10-18T15:27:49.454Z,100268.25
2022-10-18T15:30:39.368Z,100266.91
2022-10-18T15:33:08.167Z,100264.81
2022-10-18T15:35:36.579Z,100270.38
2022-10-18T15:38:24.644Z,100271.69
2022-10-18T15:40:51.378Z,100272.38
2022-10-18T15:43:23.988Z,100276.88
2022-10-18T15:45:52.796Z,100275.28
2022-10-18T15:48:25.972Z,100272.00
2022-10-18T15:51:00.461Z,100277.31
2022-10-18T15:53:35.018Z,100287.44
2022-10-18T15:56:13.235Z,100273.66
2022-10-18T15:58:44.443Z,100274.13
2022-10-18T16:01:21.007Z,100284.53
2022-10-18T16:03:48.645Z,100288.88
2022-10-18T16:06:18.168Z,100289.00
2022-10-18T16:08:50.627Z,100286.69
2022-10-18T16:11:27.406Z,100288.59
2022-10-18T16:13:57.794Z,100275.16
2022-10-18T16:16:28.313Z,100278.72
2022-10-18T16:18:55.730Z,100285.34
2022-10-18T16:21:24.574Z,100286.31
2022-10-18T16:23:51.435Z,100285.06
2022-10-18T16:26:19.717Z,100291.75
2022-10-18T16:28:47.010Z,100295.53
2022-10-18T16:31:22.267Z,100302.03
2022-10-18T16:33:49.690Z,100303.00
2022-10-18T16:36:18.379Z,100305.13
2022-10-18T16:38:45.216Z,100313.53
2022-10-18T16:41:12.313Z,100315.88
2022-10-18T16:43:39.959Z,100316.19
2022-10-18T16:46:07.534Z,100322.56
2022-10-18T16:48:34.219Z,100325.53
2022-10-18T16:51:01.321Z,100324.19
2022-10-18T16:53:27.844Z,100325.13
2022-10-18T16:55:59.810Z,100338.41
2022-10-18T16:58:28.527Z,100348.59
2022-10-18T17:00:55.698Z,100340.53
2022-10-18T17:03:23.329Z,100347.97
2022-10-18T17:05:49.781Z,100343.47
2022-10-18T17:08:20.813Z,100350.22
2022-10-18T17:10:49.876Z,100340.91
2022-10-18T17:13:16.577Z,100346.00
2022-10-18T17:15:43.274Z,100355.53
2022-10-18T17:18:15.461Z,100361.34
2022-10-18T17:20:43.250Z,100360.72
2022-10-18T17:23:10.585Z,100370.50
2022-10-18T17:25:46.274Z,100375.59
2022-10-18T17:28:24.133Z,100363.78
2022-10-18T17:30:50.629Z,100358.81
2022-10-18T17:33:17.444Z,100362.50
2022-10-18T17:35:44.714Z,100354.66
2022-10-18T17:38:11.078Z,100354.22
2022-10-18T17:40:41.142Z,100366.03
2022-10-18T17:43:07.652Z,100361.75
2022-10-18T17:45:34.095Z,100365.25
2022-10-18T17:48:00.523Z,100359.31
2022-10-18T17:50:26.983Z,100352.63
2022-10-18T17:52:53.320Z,100364.09
2022-10-18T17:55:19.635Z,100361.63
2022-10-18T17:57:46.088Z,100362.88
2022-10-18T18:00:13.699Z,100362.56
2022-10-18T18:02:41.843Z,100364.13
2022-10-18T18:05:08.815Z,100362.72
2022-10-18T18:07:35.405Z,100359.72
2022-10-18T18:10:02.676Z,100366.19
2022-10-18T18:12:29.459Z,100366.47
2022-10-18T18:14:55.997Z,100375.09
2022-10-18T18:17:33.613Z,100367.44
2022-10-18T18:20:01.154Z,100364.78
2022-10-18T18:22:27.513Z,100368.28
2022-10-18T18:24:54.109Z,100368.47
2022-10-18T18:30:11.036Z,100370.50
2022-10-18T18:32:37.747Z,100365.38
2022-10-18T18:35:04.365Z,100370.28
2022-10-18T18:37:30.769Z,100363.03
2022-10-18T18:39:57.424Z,100370.13
2022-10-18T18:42:24.027Z,100367.38
2022-10-18T18:44:50.357Z,100369.91
2022-10-18T18:49:43.098Z,100358.00
2022-10-18T18:52:09.629Z,100368.50
2022-10-18T18:54:35.988Z,100369.47
2022-10-18T18:57:02.661Z,100354.56
2022-10-18T18:59:29.049Z,100365.50
2022-10-18T19:01:55.554Z,100368.59
2022-10-18T19:04:21.950Z,100368.44
2022-10-18T19:06:48.708Z,100370.41
2022-10-18T19:09:16.929Z,100376.75
2022-10-18T19:11:43.292Z,100392.63
2022-10-18T19:14:10.279Z,100389.53
2022-10-18T19:16:38.780Z,100400.03
2022-10-18T19:19:13.333Z,100390.47
2022-10-18T19:21:50.097Z,100398.41
2022-10-18T19:24:16.493Z,100398.50
2022-10-18T19:26:48.834Z,100397.03
2022-10-18T19:29:20.815Z,100401.75
2022-10-18T19:31:47.922Z,100415.56
2022-10-18T19:34:16.228Z,100413.56
2022-10-18T19:36:45.040Z,100416.78
2022-10-18T19:39:18.289Z,100413.25
2022-10-18T19:41:46.014Z,100412.41
2022-10-18T19:44:12.940Z,100412.69
2022-10-18T19:46:39.442Z,100421.59
2022-10-18T19:49:05.834Z,100414.97
2022-10-18T19:51:32.410Z,100404.09
2022-10-18T19:53:58.998Z,100407.56
2022-10-18T19:56:27.571Z,100414.19
2022-10-18T19:58:54.452Z,100410.03
2022-10-18T20:01:20.864Z,100408.41
2022-10-18T20:03:47.504Z,100403.19
2022-10-18T20:06:14.688Z,100403.47
2022-10-18T20:11:12.001Z,100398.97
2022-10-18T20:13:38.815Z,100404.81
2022-10-18T20:16:07.245Z,100400.66
2022-10-18T20:18:33.802Z,100412.28
2022-10-18T20:21:00.253Z,100409.22
2022-10-18T20:23:26.739Z,100412.31
2022-10-18T20:26:01.081Z,100426.66
2022-10-18T20:28:28.499Z,100421.75
2022-10-18T20:31:06.966Z,100421.16
2022-10-18T20:33:34.275Z,100413.88
2022-10-18T20:36:15.248Z,100415.94
2022-10-18T20:38:43.748Z,100427.63
2022-10-18T20:41:22.685Z,100434.78
2022-10-18T20:44:00.618Z,100428.63
2022-10-18T20:46:29.791Z,100437.59
2022-10-18T20:48:56.489Z,100434.97
2022-10-18T20:51:23.993Z,100437.94
2022-10-18T20:53:50.815Z,100444.34
2022-10-18T20:56:23.126Z,100443.56
2022-10-18T20:58:52.053Z,100431.31
2022-10-18T21:01:21.298Z,100430.25
2022-10-18T21:03:49.762Z,100424.06
2022-10-18T21:06:29.789Z,100432.81
2022-10-18T21:08:58.377Z,100425.75
2022-10-18T21:11:26.388Z,100421.31
2022-10-18T21:13:55.304Z,100427.53
2022-10-18T21:16:22.138Z,100436.50
2022-10-18T21:18:49.045Z,100434.69
2022-10-18T21:21:18.112Z,100431.13
2022-10-18T21:23:45.322Z,100431.38
2022-10-18T21:26:15.097Z,100437.25
2022-10-18T21:28:41.664Z,100435.63
2022-10-18T21:31:13.125Z,100437.16
2022-10-18T21:33:40.948Z,100447.03
2022-10-18T21:36:08.140Z,100443.63
2022-10-18T21:38:34.551Z,100446.44
2022-10-18T21:41:01.352Z,100450.19
2022-10-18T21:43:28.155Z,100440.41
2022-10-18T21:45:59.428Z,100443.41
2022-10-18T21:48:27.018Z,100441.75
2022-10-18T21:50:53.992Z,100441.25
2022-10-18T21:53:21.464Z,100435.09
2022-10-18T21:55:48.012Z,100437.84
2022-10-18T21:58:15.118Z,100439.53
2022-10-18T22:00:41.578Z,100447.31
2022-10-18T22:03:08.745Z,100443.72
2022-10-18T22:05:35.190Z,100450.03
2022-10-18T22:08:02.051Z,100455.31
2022-10-18T22:10:28.831Z,100443.28
2022-10-18T22:12:55.518Z,100439.97
2022-10-18T22:15:21.983Z,100440.97
2022-10-18T22:17:48.381Z,100440.47
2022-10-18T22:20:14.907Z,100432.47
2022-10-18T22:22:41.700Z,100427.53
2022-10-18T22:25:08.511Z,100432.72
2022-10-18T22:27:35.462Z,100431.00
2022-10-18T22:30:02.092Z,100437.38
2022-10-18T22:32:28.429Z,100434.22
2022-10-18T22:34:54.837Z,100435.53
2022-10-18T22:37:21.151Z,100430.66
2022-10-18T22:39:47.501Z,100429.69
2022-10-18T22:42:14.176Z,100434.31
2022-10-18T22:44:40.623Z,100426.63
2022-10-18T22:47:06.955Z,100416.50
2022-10-18T22:49:33.355Z,100432.06
2022-10-18T22:51:59.767Z,100423.47
2022-10-18T22:54:26.102Z,100424.50
2022-10-18T22:56:52.500Z,100434.97
2022-10-18T22:59:18.927Z,100420.28
2022-10-18T23:01:45.439Z,100408.03
2022-10-18T23:04:11.855Z,100413.31
2022-10-18T23:06:39.914Z,100410.81
2022-10-18T23:09:08.963Z,100403.41
2022-10-18T23:11:36.677Z,100415.31
2022-10-18T23:14:05.140Z,100417.00
2022-10-18T23:16:31.861Z,100429.09
2022-10-18T23:18:59.011Z,100420.34
2022-10-18T23:21:27.497Z,100427.22
2022-10-18T23:23:54.436Z,100433.38
2022-10-18T23:26:23.262Z,100429.94
2022-10-18T23:28:51.909Z,100429.25
2022-10-18T23:31:26.981Z,100435.84
2022-10-18T23:33:55.289Z,100430.66
2022-10-18T23:36:22.951Z,100428.94
2022-10-18T23:38:50.053Z,100427.63
2022-10-18T23:41:17.379Z,100443.44
2022-10-18T23:43:44.399Z,100447.66
2022-10-18T23:46:12.218Z,100441.59
2022-10-18T23:48:38.740Z,100427.94
2022-10-18T23:51:05.741Z,100436.81
2022-10-18T23:53:33.520Z,100424.03
2022-10-18T23:56:08.581Z,100413.00
